createdAt,value
2018-12-22T00:01:03.507Z,2.10
2018-12-22T00:03:31.094Z,1.67
2018-12-22T00:05:58.769Z,1.80
2018-12-22T00:08:26.355Z,1.80
2018-12-22T00:10:53.988Z,1.20
2018-12-22T00:13:21.644Z,1.47
2018-12-22T00:15:49.243Z,0.77
2018-12-22T00:18:16.826Z,1.07
2018-12-22T00:20:44.423Z,1.07
2018-12-22T00:23:12.006Z,0.80
2018-12-22T00:25:39.603Z,0.90
2018-12-22T00:28:07.229Z,1.00
2018-12-22T00:30:34.889Z,0.80
2018-12-22T00:33:02.481Z,0.70
2018-12-22T00:35:30.210Z,0.80
2018-12-22T00:37:57.798Z,0.60
2018-12-22T00:40:25.523Z,0.70
2018-12-22T00:42:53.097Z,0.90
2018-12-22T00:45:21.367Z,0.80
2018-12-22T00:47:49.027Z,0.90
2018-12-22T00:50:16.691Z,0.70
2018-12-22T00:52:44.369Z,0.70
2018-12-22T00:55:12.029Z,0.70
2018-12-22T00:57:39.689Z,0.97
2018-12-22T01:00:08.373Z,0.80
2018-12-22T01:02:36.046Z,0.80
2018-12-22T01:05:03.738Z,0.97
2018-12-22T01:07:31.366Z,0.90
2018-12-22T01:09:59.018Z,1.30
2018-12-22T01:12:26.679Z,1.00
2018-12-22T01:14:54.358Z,0.70
2018-12-22T01:17:22.069Z,1.03
2018-12-22T01:19:49.686Z,0.77
2018-12-22T01:22:17.339Z,1.00
2018-12-22T01:24:44.999Z,0.83
2018-12-22T01:27:12.673Z,1.37
2018-12-22T01:29:40.318Z,0.60
2018-12-22T01:32:07.990Z,1.00
2018-12-22T01:34:35.647Z,0.90
2018-12-22T01:37:03.314Z,0.67
2018-12-22T01:39:30.898Z,0.90
2018-12-22T01:41:58.545Z,1.30
2018-12-22T01:44:26.133Z,0.70
2018-12-22T01:46:53.756Z,0.80
2018-12-22T01:49:21.337Z,0.80
2018-12-22T01:51:48.993Z,0.90
2018-12-22T01:54:16.647Z,0.90
2018-12-22T01:56:44.238Z,0.70
2018-12-22T01:59:11.872Z,1.10
2018-12-22T02:01:39.527Z,0.80
2018-12-22T02:04:07.195Z,0.70
2018-12-22T02:06:34.865Z,0.83
2018-12-22T02:09:02.675Z,1.13
2018-12-22T02:11:30.272Z,1.10
2018-12-22T02:13:57.957Z,0.80
2018-12-22T02:16:25.621Z,0.80
2018-12-22T02:18:53.276Z,0.93
2018-12-22T02:21:20.935Z,0.93
2018-12-22T02:23:48.609Z,0.70
2018-12-22T02:26:16.265Z,0.93
2018-12-22T02:28:43.918Z,0.67
2018-12-22T02:31:11.599Z,0.80
2018-12-22T02:33:39.209Z,1.00
2018-12-22T02:36:06.818Z,0.70
2018-12-22T02:38:34.489Z,1.27
2018-12-22T02:41:02.148Z,0.97
2018-12-22T02:43:29.810Z,1.00
2018-12-22T02:45:57.464Z,0.63
2018-12-22T02:48:25.139Z,1.00
2018-12-22T02:50:52.725Z,0.87
2018-12-22T02:53:20.353Z,1.00
2018-12-22T02:55:48.016Z,0.87
2018-12-22T02:58:15.679Z,0.60
2018-12-22T03:00:43.432Z,0.80
2018-12-22T03:03:11.109Z,0.53
2018-12-22T03:05:38.862Z,0.60
2018-12-22T03:08:06.542Z,1.07
2018-12-22T03:10:34.180Z,0.80
2018-12-22T03:13:01.789Z,0.80
2018-12-22T03:15:29.531Z,0.60
2018-12-22T03:17:57.293Z,0.80
2018-12-22T03:20:24.957Z,0.87
2018-12-22T03:22:52.623Z,1.20
2018-12-22T03:25:20.276Z,0.73
2018-12-22T03:27:47.945Z,0.90
2018-12-22T03:30:15.610Z,0.63
2018-12-22T03:32:43.256Z,1.00
2018-12-22T03:35:10.846Z,0.80
2018-12-22T03:37:38.497Z,0.97
2018-12-22T03:40:07.793Z,0.70
2018-12-22T03:42:35.457Z,0.90
2018-12-22T03:45:03.121Z,1.00
2018-12-22T03:47:30.787Z,1.00
2018-12-22T03:49:58.441Z,1.00
2018-12-22T03:52:26.108Z,1.10
2018-12-22T03:54:53.784Z,1.20
2018-12-22T03:57:21.434Z,1.30
2018-12-22T03:59:49.093Z,1.00
2018-12-22T04:02:17.420Z,1.37
2018-12-22T04:04:45.144Z,1.27
2018-12-22T04:07:12.802Z,1.80
2018-12-22T04:09:40.401Z,1.20
2018-12-22T04:12:08.020Z,1.13
2018-12-22T04:14:35.689Z,1.10
2018-12-22T04:17:03.324Z,1.17
2018-12-22T04:19:30.938Z,1.20
2018-12-22T04:21:58.573Z,1.13
2018-12-22T04:24:26.233Z,1.30
2018-12-22T04:26:53.852Z,1.20
2018-12-22T04:29:21.462Z,1.43
2018-12-22T04:31:50.737Z,1.13
2018-12-22T04:34:18.742Z,1.20
2018-12-22T04:36:46.391Z,1.20
2018-12-22T04:39:14.001Z,1.30
2018-12-22T04:41:41.576Z,1.50
2018-12-22T04:44:09.273Z,1.10
2018-12-22T04:46:36.937Z,1.13
2018-12-22T04:49:04.737Z,1.13
2018-12-22T04:51:32.569Z,1.50
2018-12-22T04:54:00.243Z,0.90
2018-12-22T04:56:27.949Z,1.30
2018-12-22T04:58:55.553Z,1.27
2018-12-22T05:01:23.229Z,1.40
2018-12-22T05:03:51.197Z,0.90
2018-12-22T05:06:18.853Z,1.30
2018-12-22T05:08:46.517Z,0.87
2018-12-22T05:11:14.593Z,0.90
2018-12-22T05:13:42.257Z,0.60
2018-12-22T05:16:09.921Z,0.80
2018-12-22T05:18:37.584Z,0.70
2018-12-22T05:21:05.240Z,1.50
2018-12-22T05:23:32.868Z,0.70
2018-12-22T05:26:00.568Z,1.17
2018-12-22T05:28:28.228Z,1.10
2018-12-22T05:30:55.889Z,0.93
2018-12-22T05:33:23.557Z,1.10
2018-12-22T05:35:51.223Z,0.97
2018-12-22T05:38:18.844Z,0.97
2018-12-22T05:40:46.549Z,0.90
2018-12-22T05:43:14.209Z,0.80
2018-12-22T05:45:41.873Z,1.00
2018-12-22T05:48:09.533Z,0.70
2018-12-22T05:50:37.199Z,0.87
2018-12-22T05:53:04.857Z,0.80
2018-12-22T05:55:32.525Z,0.73
2018-12-22T05:58:00.186Z,0.80
2018-12-22T06:00:27.849Z,1.07
2018-12-22T06:02:55.515Z,1.00
2018-12-22T06:05:23.168Z,1.40
2018-12-22T06:07:50.837Z,1.03
2018-12-22T06:10:18.495Z,1.93
2018-12-22T06:12:46.105Z,1.20
2018-12-22T06:15:13.736Z,1.57
2018-12-22T06:17:41.385Z,1.30
2018-12-22T06:20:09.357Z,1.40
2018-12-22T06:22:37.021Z,1.80
2018-12-22T06:25:04.989Z,1.10
2018-12-22T06:27:32.602Z,2.00
2018-12-22T06:30:08.955Z,1.87
2018-12-22T06:32:29.829Z,2.50
2018-12-22T06:34:57.485Z,2.10
2018-12-22T06:37:25.092Z,2.10
2018-12-22T06:39:52.703Z,1.93
2018-12-22T06:42:20.317Z,1.80
2018-12-22T06:44:47.927Z,2.20
2018-12-22T06:47:15.593Z,1.17
2018-12-22T06:49:43.258Z,1.20
2018-12-22T06:52:10.913Z,1.20
2018-12-22T06:54:38.585Z,1.07
2018-12-22T06:57:06.449Z,2.00
2018-12-22T06:59:34.125Z,1.70
2018-12-22T07:02:01.777Z,1.27
2018-12-22T07:04:29.414Z,1.30
2018-12-22T07:06:57.106Z,1.50
2018-12-22T07:09:24.756Z,0.97
2018-12-22T07:11:52.426Z,0.90
2018-12-22T07:14:20.091Z,1.03
2018-12-22T07:16:47.755Z,1.03
2018-12-22T07:19:15.364Z,1.07
2018-12-22T07:21:42.972Z,0.90
2018-12-22T07:24:10.636Z,1.00
2018-12-22T07:26:38.300Z,1.63
2018-12-22T07:29:05.956Z,0.97
2018-12-22T07:31:33.621Z,1.87
2018-12-22T07:34:01.290Z,1.00
2018-12-22T07:36:28.948Z,1.00
2018-12-22T07:38:56.557Z,1.17
2018-12-22T07:41:24.277Z,1.23
2018-12-22T07:43:52.038Z,1.10
2018-12-22T07:46:19.700Z,1.20
2018-12-22T07:48:47.429Z,1.17
2018-12-22T07:51:15.138Z,0.80
2018-12-22T07:53:42.748Z,0.83
2018-12-22T07:56:10.330Z,0.90
2018-12-22T07:58:37.936Z,1.20
2018-12-22T08:01:05.577Z,1.07
2018-12-22T08:03:33.247Z,0.73
2018-12-22T08:06:00.907Z,1.10
2018-12-22T08:08:28.569Z,1.03
2018-12-22T08:10:56.233Z,1.43
2018-12-22T08:13:23.889Z,1.50
2018-12-22T08:15:51.560Z,1.50
2018-12-22T08:18:19.219Z,1.30
2018-12-22T08:20:46.890Z,0.77
2018-12-22T08:23:14.526Z,0.70
2018-12-22T08:25:42.209Z,1.30
2018-12-22T08:28:09.803Z,1.20
2018-12-22T08:30:43.540Z,1.30
2018-12-22T08:33:07.245Z,1.33
2018-12-22T08:35:34.901Z,1.43
2018-12-22T08:38:02.485Z,1.47
2018-12-22T08:40:30.176Z,1.05
2018-12-22T08:42:57.797Z,1.17
2018-12-22T08:45:25.461Z,1.43
2018-12-22T08:47:53.188Z,1.20
2018-12-22T08:50:20.862Z,1.40
2018-12-22T08:52:48.545Z,1.50
2018-12-22T08:55:16.928Z,1.20
2018-12-22T08:57:44.589Z,1.30
2018-12-22T09:00:12.352Z,1.37
2018-12-22T09:02:41.620Z,1.40
2018-12-22T09:05:09.317Z,1.87
2018-12-22T09:07:36.984Z,1.90
2018-12-22T09:10:05.974Z,1.23
2018-12-22T09:12:33.637Z,1.77
2018-12-22T09:15:01.336Z,2.10
2018-12-22T09:17:29.042Z,2.13
2018-12-22T09:19:56.632Z,2.13
2018-12-22T09:22:24.292Z,1.80
2018-12-22T09:24:51.957Z,1.93
2018-12-22T09:27:19.614Z,1.90
2018-12-22T09:29:47.285Z,2.80
2018-12-22T09:32:15.053Z,2.27
2018-12-22T09:34:42.706Z,1.70
2018-12-22T09:37:10.364Z,2.33
2018-12-22T09:39:37.949Z,1.80
2018-12-22T09:42:05.593Z,1.60
2018-12-22T09:44:33.178Z,2.00
2018-12-22T09:47:00.921Z,1.53
2018-12-22T09:49:28.665Z,2.10
2018-12-22T09:51:56.341Z,1.20
2018-12-22T09:54:24.418Z,2.47
2018-12-22T09:56:52.083Z,2.83
2018-12-22T09:59:19.750Z,2.00
2018-12-22T10:01:47.508Z,2.33
2018-12-22T10:04:15.170Z,2.07
2018-12-22T10:06:42.832Z,2.37
2018-12-22T10:09:10.496Z,2.07
2018-12-22T10:11:38.165Z,1.60
2018-12-22T10:14:05.900Z,2.17
2018-12-22T10:16:33.589Z,2.57
2018-12-22T10:19:01.499Z,2.43
2018-12-22T10:21:29.629Z,3.53
2018-12-22T10:23:57.226Z,3.43
2018-12-22T10:26:24.812Z,6.43
2018-12-22T10:28:52.429Z,2.47
2018-12-22T10:31:20.082Z,2.60
2018-12-22T10:33:47.736Z,3.30
2018-12-22T10:36:15.405Z,3.20
2018-12-22T10:38:43.065Z,3.03
2018-12-22T10:41:10.724Z,2.80
2018-12-22T10:43:38.389Z,2.77
2018-12-22T10:46:06.057Z,4.20
2018-12-22T10:48:33.717Z,5.00
2018-12-22T10:51:01.381Z,4.07
2018-12-22T10:53:29.041Z,4.13
2018-12-22T10:55:56.711Z,4.30
2018-12-22T10:58:24.894Z,5.00
2018-12-22T11:00:52.523Z,3.90
2018-12-22T11:03:20.205Z,4.83
2018-12-22T11:05:47.873Z,4.47
2018-12-22T11:08:15.529Z,3.53
2018-12-22T11:10:43.185Z,4.53
2018-12-22T11:13:10.857Z,3.97
2018-12-22T11:15:38.516Z,5.23
2018-12-22T11:18:06.168Z,5.53
2018-12-22T11:20:33.796Z,5.63
2018-12-22T11:23:01.405Z,4.67
2018-12-22T11:25:29.040Z,3.67
2018-12-22T11:27:56.731Z,3.77
2018-12-22T11:30:24.910Z,4.33
2018-12-22T11:32:52.569Z,5.67
2018-12-22T11:35:20.238Z,5.20
2018-12-22T11:37:47.892Z,5.77
2018-12-22T11:40:15.539Z,5.63
2018-12-22T11:42:47.645Z,5.30
2018-12-22T11:45:13.137Z,6.77
2018-12-22T11:47:43.316Z,4.70
2018-12-22T11:50:15.593Z,5.87
2018-12-22T11:52:43.297Z,5.90
2018-12-22T11:55:11.040Z,5.60
2018-12-22T11:57:38.641Z,6.07
2018-12-22T12:00:08.589Z,6.00
2018-12-22T12:02:36.196Z,5.23
2018-12-22T12:05:06.301Z,4.80
2018-12-22T12:07:33.984Z,4.90
2018-12-22T12:10:01.597Z,4.77
2018-12-22T12:12:29.200Z,3.63
2018-12-22T12:14:56.864Z,4.30
2018-12-22T12:17:28.417Z,3.90
2018-12-22T12:19:56.081Z,5.10
2018-12-22T12:22:23.740Z,4.40
2018-12-22T12:24:51.817Z,3.70
2018-12-22T12:27:19.409Z,5.90
2018-12-22T12:29:47.046Z,5.37
2018-12-22T12:32:14.702Z,5.87
2018-12-22T12:34:42.316Z,4.87
2018-12-22T12:37:09.933Z,5.20
2018-12-22T12:39:37.584Z,5.00
2018-12-22T12:42:05.248Z,5.33
2018-12-22T12:44:32.890Z,5.57
2018-12-22T12:47:00.485Z,5.10
2018-12-22T12:49:28.136Z,5.80
2018-12-22T12:51:55.729Z,5.77
2018-12-22T12:54:23.513Z,5.70
2018-12-22T12:56:51.140Z,5.07
2018-12-22T12:59:18.772Z,5.33
2018-12-22T13:01:46.536Z,6.17
2018-12-22T13:04:14.368Z,6.40
2018-12-22T13:06:42.086Z,5.33
2018-12-22T13:09:09.766Z,6.70
2018-12-22T13:11:37.545Z,7.27
2018-12-22T13:14:05.184Z,5.80
2018-12-22T13:16:32.845Z,5.77
2018-12-22T13:19:00.595Z,6.57
2018-12-22T13:21:28.268Z,5.40
2018-12-22T13:23:55.932Z,6.37
2018-12-22T13:26:23.589Z,6.23
2018-12-22T13:28:51.305Z,6.23
2018-12-22T13:31:19.656Z,5.13
2018-12-22T13:33:47.296Z,6.60
2018-12-22T13:36:15.137Z,5.83
2018-12-22T13:38:43.222Z,6.40
2018-12-22T13:41:11.088Z,6.83
2018-12-22T13:43:38.681Z,8.53
2018-12-22T13:46:06.305Z,6.90
2018-12-22T13:48:34.389Z,6.33
2018-12-22T13:51:02.077Z,6.33
2018-12-22T13:53:29.812Z,5.80
2018-12-22T13:55:57.461Z,6.13
2018-12-22T13:58:25.153Z,6.73
2018-12-22T14:00:52.821Z,7.60
2018-12-22T14:03:20.586Z,6.80
2018-12-22T14:05:48.349Z,7.00
2018-12-22T14:08:16.011Z,7.00
2018-12-22T14:10:43.659Z,5.93
2018-12-22T14:13:11.338Z,6.97
2018-12-22T14:15:40.024Z,7.20
2018-12-22T14:18:21.920Z,7.00
2018-12-22T14:20:49.580Z,7.17
2018-12-22T14:23:17.552Z,5.60
2018-12-22T14:25:45.220Z,6.90
2018-12-22T14:28:12.835Z,6.90
2018-12-22T14:30:40.425Z,6.60
2018-12-22T14:33:08.105Z,5.90
2018-12-22T14:35:37.084Z,6.47
2018-12-22T14:38:04.761Z,7.33
2018-12-22T14:40:32.425Z,7.73
2018-12-22T14:43:00.085Z,7.90
2018-12-22T14:45:27.690Z,7.90
2018-12-22T14:47:56.128Z,7.23
2018-12-22T14:50:23.789Z,6.13
2018-12-22T14:52:51.448Z,6.13
2018-12-22T14:55:19.055Z,6.80
2018-12-22T14:57:53.822Z,6.20
2018-12-22T15:00:21.518Z,5.17
2018-12-22T15:02:49.169Z,6.07
2018-12-22T15:05:16.763Z,5.03
2018-12-22T15:07:44.388Z,3.50
2018-12-22T15:10:12.100Z,4.50
2018-12-22T15:12:39.713Z,5.20
2018-12-22T15:15:11.524Z,5.10
2018-12-22T15:17:42.721Z,4.30
2018-12-22T15:20:17.640Z,4.53
2018-12-22T15:22:45.641Z,5.17
2018-12-22T15:25:13.424Z,5.37
2018-12-22T15:27:41.112Z,4.87
2018-12-22T15:30:13.412Z,5.50
2018-12-22T15:32:46.256Z,5.37
2018-12-22T15:35:11.626Z,5.03
2018-12-22T15:37:39.262Z,5.17
2018-12-22T15:40:09.917Z,7.63
2018-12-22T15:42:37.682Z,7.47
2018-12-22T15:45:15.153Z,6.97
2018-12-22T15:47:44.179Z,6.20
2018-12-22T15:50:21.284Z,5.90
2018-12-22T15:52:49.018Z,9.28
2018-12-22T15:55:16.682Z,7.40
2018-12-22T15:57:44.272Z,8.30
2018-12-22T16:00:13.337Z,7.73
2018-12-22T16:02:41.000Z,7.40
2018-12-22T16:05:11.221Z,7.00
2018-12-22T16:07:41.056Z,6.23
2018-12-22T16:10:15.706Z,7.53
2018-12-22T16:12:43.431Z,6.70
2018-12-22T16:15:18.153Z,6.30
2018-12-22T16:17:45.745Z,5.67
2018-12-22T16:20:13.505Z,6.57
2018-12-22T16:22:47.600Z,7.07
2018-12-22T16:25:15.213Z,6.80
2018-12-22T16:27:42.805Z,7.20
2018-12-22T16:33:18.376Z,6.17
2018-12-22T16:35:46.072Z,7.77
2018-12-22T16:38:13.817Z,7.60
2018-12-22T16:40:46.601Z,7.40
2018-12-22T16:43:14.262Z,7.67
2018-12-22T16:45:42.234Z,8.40
2018-12-22T16:48:09.897Z,8.17
2018-12-22T16:50:38.068Z,7.13
2018-12-22T16:53:05.819Z,7.80
2018-12-22T16:55:33.493Z,7.57
2018-12-22T16:58:06.193Z,8.50
2018-12-22T17:00:41.232Z,7.43
2018-12-22T17:03:11.006Z,7.80
2018-12-22T17:05:38.589Z,9.13
2018-12-22T17:08:06.261Z,8.50
2018-12-22T17:10:34.873Z,8.13
2018-12-22T17:13:02.601Z,9.30
2018-12-22T17:15:30.216Z,7.60
2018-12-22T17:17:57.854Z,8.47
2018-12-22T17:20:26.405Z,9.43
2018-12-22T17:25:55.424Z,8.90
2018-12-22T17:28:28.244Z,9.60
2018-12-22T17:30:52.733Z,8.30
2018-12-22T17:33:20.325Z,10.90
2018-12-22T17:35:47.989Z,10.47
2018-12-22T17:38:15.580Z,9.80
2018-12-22T17:40:43.247Z,10.00
2018-12-22T17:43:10.909Z,10.30
2018-12-22T17:45:38.570Z,9.07
2018-12-22T17:48:06.238Z,10.47
2018-12-22T17:50:33.996Z,9.90
2018-12-22T17:53:01.661Z,8.17
2018-12-22T17:55:29.258Z,9.30
2018-12-22T17:57:56.989Z,8.10
2018-12-22T18:00:24.626Z,8.77
2018-12-22T18:02:52.247Z,8.40
2018-12-22T18:05:19.852Z,8.20
2018-12-22T18:07:47.477Z,8.83
2018-12-22T18:10:15.205Z,9.07
2018-12-22T18:12:42.865Z,8.40
2018-12-22T18:15:16.472Z,10.50
2018-12-22T18:17:44.129Z,8.00
2018-12-22T18:20:11.789Z,8.43
2018-12-22T18:22:39.402Z,7.97
2018-12-22T18:25:13.877Z,9.27
2018-12-22T18:27:41.536Z,9.67
2018-12-22T18:30:11.533Z,10.20
2018-12-22T18:32:40.140Z,10.70
2018-12-22T18:35:09.961Z,10.33
2018-12-22T18:37:38.025Z,9.77
2018-12-22T18:40:12.348Z,8.90
2018-12-22T18:42:40.116Z,8.97
2018-12-22T18:45:10.296Z,8.50
2018-12-22T18:47:37.992Z,9.20
2018-12-22T18:50:11.701Z,9.57
2018-12-22T18:52:39.368Z,8.40
2018-12-22T18:55:08.974Z,9.67
2018-12-22T18:57:36.838Z,7.83
2018-12-22T19:00:18.542Z,8.70
2018-12-22T19:02:46.470Z,8.30
2018-12-22T19:05:14.952Z,9.10
2018-12-22T19:07:42.561Z,8.73
2018-12-22T19:10:18.815Z,9.47
2018-12-22T19:12:46.573Z,8.80
2018-12-22T19:15:14.349Z,9.07
2018-12-22T19:17:41.983Z,10.77
2018-12-22T19:20:16.012Z,10.70
2018-12-22T19:22:43.689Z,9.80
2018-12-22T19:25:11.346Z,10.13
2018-12-22T19:27:39.005Z,11.10
2018-12-22T19:30:08.410Z,9.93
2018-12-22T19:32:36.072Z,9.80
2018-12-22T19:35:04.142Z,9.37
2018-12-22T19:37:31.800Z,9.27
2018-12-22T19:39:59.400Z,9.97
2018-12-22T19:42:27.030Z,9.90
2018-12-22T19:44:54.646Z,10.17
2018-12-22T19:47:22.460Z,9.57
2018-12-22T19:49:50.121Z,10.40
2018-12-22T19:52:17.784Z,9.77
2018-12-22T19:54:45.445Z,10.30
2018-12-22T19:57:13.105Z,11.70
2018-12-22T19:59:40.777Z,11.17
2018-12-22T20:02:08.437Z,11.93
2018-12-22T20:04:36.096Z,9.30
2018-12-22T20:07:04.437Z,12.97
2018-12-22T20:09:32.141Z,16.27
2018-12-22T20:11:59.741Z,14.10
2018-12-22T20:14:27.468Z,14.70
2018-12-22T20:16:55.062Z,14.63
2018-12-22T20:19:22.774Z,13.60
2018-12-22T20:21:50.557Z,13.77
2018-12-22T20:24:18.221Z,15.07
2018-12-22T20:26:45.881Z,15.67
2018-12-22T20:29:13.535Z,19.37
2018-12-22T20:31:41.134Z,17.87
2018-12-22T20:34:11.203Z,17.97
2018-12-22T20:36:38.521Z,20.93
2018-12-22T20:39:07.029Z,19.07
2018-12-22T20:41:34.727Z,19.57
2018-12-22T20:44:02.593Z,17.57
2018-12-22T20:46:30.194Z,16.10
2018-12-22T20:48:57.916Z,15.70
2018-12-22T20:51:25.509Z,14.30
2018-12-22T20:53:53.141Z,12.80
2018-12-22T20:56:20.800Z,14.20
2018-12-22T20:58:48.464Z,14.70
2018-12-22T21:01:16.129Z,15.83
2018-12-22T21:03:43.792Z,15.23
2018-12-22T21:06:15.804Z,16.80
2018-12-22T21:08:43.523Z,16.60
2018-12-22T21:11:11.911Z,16.13
2018-12-22T21:13:39.504Z,13.57
2018-12-22T21:16:07.229Z,13.37
2018-12-22T21:18:34.894Z,13.00
2018-12-22T21:21:02.550Z,14.07
2018-12-22T21:23:30.213Z,13.00
2018-12-22T21:25:57.844Z,12.00
2018-12-22T21:28:25.455Z,12.80
2018-12-22T21:30:53.106Z,11.70
2018-12-22T21:33:20.762Z,10.37
2018-12-22T21:35:53.256Z,11.87
2018-12-22T21:38:18.145Z,10.03
2018-12-22T21:40:45.800Z,10.50
2018-12-22T21:43:13.461Z,9.50
2018-12-22T21:45:41.129Z,9.70
2018-12-22T21:48:08.793Z,8.83
2018-12-22T21:50:36.453Z,9.33
2018-12-22T21:53:04.064Z,9.07
2018-12-22T21:55:31.648Z,8.90
2018-12-22T21:57:59.339Z,8.97
2018-12-22T22:00:27.001Z,9.40
2018-12-22T22:02:54.661Z,9.47
2018-12-22T22:05:22.324Z,9.20
2018-12-22T22:07:49.952Z,10.17
2018-12-22T22:10:17.545Z,9.77
2018-12-22T22:12:45.161Z,9.20
2018-12-22T22:15:12.772Z,9.17
2018-12-22T22:17:40.436Z,10.73
2018-12-22T22:20:08.197Z,10.53
2018-12-22T22:22:35.869Z,10.33
2018-12-22T22:25:03.629Z,10.23
2018-12-22T22:27:31.301Z,10.53
2018-12-22T22:29:58.961Z,11.03
2018-12-22T22:32:26.717Z,11.60
2018-12-22T22:34:54.381Z,10.90
2018-12-22T22:37:22.045Z,9.83
2018-12-22T22:39:49.812Z,11.37
2018-12-22T22:42:17.473Z,10.93
2018-12-22T22:44:45.127Z,10.20
2018-12-22T22:47:12.900Z,10.10
2018-12-22T22:49:40.551Z,10.93
2018-12-22T22:52:08.233Z,10.67
2018-12-22T22:54:35.889Z,10.40
2018-12-22T22:57:03.499Z,10.63
2018-12-22T22:59:31.115Z,10.87
2018-12-22T23:01:58.767Z,10.70
2018-12-22T23:04:26.439Z,8.43
2018-12-22T23:06:54.100Z,9.40
2018-12-22T23:09:21.769Z,10.20
2018-12-22T23:11:49.428Z,8.93
2018-12-22T23:14:17.088Z,9.40
2018-12-22T23:16:44.754Z,9.93
2018-12-22T23:19:12.418Z,8.87
2018-12-22T23:21:40.071Z,9.10
2018-12-22T23:24:07.680Z,9.10
2018-12-22T23:26:35.294Z,9.13
2018-12-22T23:29:02.900Z,9.33
2018-12-22T23:31:30.489Z,8.77
2018-12-22T23:33:58.103Z,10.07
2018-12-22T23:36:25.730Z,8.60
2018-12-22T23:38:53.410Z,9.30
2018-12-22T23:41:21.072Z,9.70
2018-12-22T23:43:48.727Z,9.63
2018-12-22T23:46:16.400Z,10.13
2018-12-22T23:48:44.061Z,10.80
2018-12-22T23:51:11.724Z,9.90
2018-12-22T23:53:39.385Z,10.70
2018-12-22T23:56:07.053Z,10.13
2018-12-22T23:58:34.669Z,10.10
